Time;durP1;ratioP1;P1;durP2;ratioP2;P2;SDS_P1;SDS_P2;PMS_P1;PMS_P2;Temp;Humidity;BMP_temperature;BMP_pressure;BME280_temperature;BME280_humidity;BME280_pressure;Samples;Min_cycle;Max_cycle;Signal;HPM_P1;HPM_P2
2023/09/07 00:01:58;;;;;;;8.60;3.85;;;;;;;19.80;51.01;99838.88;4360612;32;34037;-89
2023/09/07 00:04:26;;;;;;;6.68;3.47;;;;;;;19.78;51.05;99840.69;4360473;32;34735;-90
2023/09/07 00:06:54;;;;;;;7.37;3.90;;;;;;;19.80;50.87;99836.25;4360031;32;34340;-90
2023/09/07 00:09:23;;;;;;;6.97;3.37;;;;;;;19.78;50.97;99837.19;4359240;32;34780;-88
2023/09/07 00:11:51;;;;;;;5.75;3.78;;;;;;;19.73;50.98;99831.97;4360715;32;34967;-89
2023/09/07 00:14:18;;;;;;;8.20;3.87;;;;;;;19.61;51.48;99827.72;4360412;32;35082;-88
2023/09/07 00:16:46;;;;;;;7.40;3.90;;;;;;;19.59;51.52;99833.91;4360236;32;33883;-88
2023/09/07 00:19:14;;;;;;;7.93;4.12;;;;;;;19.66;51.57;99828.59;4360471;32;34959;-90
2023/09/07 00:21:41;;;;;;;7.53;4.32;;;;;;;19.61;51.78;99827.72;4334254;32;34487;-89
2023/09/07 00:24:10;;;;;;;7.07;4.28;;;;;;;19.38;52.50;99833.28;4360496;32;34995;-90
2023/09/07 00:26:38;;;;;;;7.87;3.87;;;;;;;19.50;52.42;99832.25;4360382;32;34213;-87
2023/09/07 00:29:06;;;;;;;6.15;3.53;;;;;;;19.11;53.71;99837.09;4344200;33;35381;-89
2023/09/07 00:31:34;;;;;;;7.18;4.00;;;;;;;19.19;53.23;99834.37;4332066;33;33686;-89
2023/09/07 00:34:02;;;;;;;7.65;4.28;;;;;;;19.39;52.74;99840.28;4345572;33;34017;-89
2023/09/07 00:36:30;;;;;;;6.60;3.97;;;;;;;19.08;53.40;99846.78;4343926;33;33432;-88
2023/09/07 00:38:57;;;;;;;8.70;4.37;;;;;;;19.12;53.31;99840.59;4345786;32;35369;-89
2023/09/07 00:41:25;;;;;;;6.93;3.72;;;;;;;19.23;52.84;99851.88;4358571;32;35166;-89
2023/09/07 00:43:52;;;;;;;9.32;3.97;;;;;;;19.24;52.52;99843.09;4359224;32;34594;-89
2023/09/07 00:46:21;;;;;;;5.72;3.70;;;;;;;19.25;52.35;99844.84;4360244;32;33540;-89
2023/09/07 00:48:50;;;;;;;8.77;4.15;;;;;;;19.18;52.81;99843.16;4359862;32;33864;-88
2023/09/07 00:51:17;;;;;;;8.85;3.65;;;;;;;19.12;52.89;99837.97;4358556;32;34365;-89
2023/09/07 00:53:44;;;;;;;8.55;4.30;;;;;;;19.22;52.76;99836.13;4358920;32;33709;-90
2023/09/07 00:56:13;;;;;;;8.10;3.92;;;;;;;19.10;53.28;99839.75;4359913;32;34198;-89
2023/09/07 00:58:40;;;;;;;7.53;4.07;;;;;;;18.96;53.57;99838.16;4358561;32;33958;-90
2023/09/07 01:01:09;;;;;;;6.85;4.05;;;;;;;19.08;53.39;99838.91;4359832;32;34276;-89
2023/09/07 01:03:36;;;;;;;7.80;3.95;;;;;;;19.11;53.28;99838.88;4358311;32;34032;-90
2023/09/07 01:06:13;;;;;;;8.27;3.87;;;;;;;19.12;53.20;99833.59;4358299;32;33687;-89
2023/09/07 01:08:51;;;;;;;8.23;4.35;;;;;;;19.12;52.91;99837.97;4358186;32;34597;-89
2023/09/07 01:11:26;;;;;;;8.43;3.95;;;;;;;19.08;52.81;99836.28;4358653;32;34673;-89
2023/09/07 01:13:55;;;;;;;7.37;4.47;;;;;;;19.09;52.87;99838.91;4334726;32;34093;-89
2023/09/07 01:16:23;;;;;;;8.00;4.40;;;;;;;19.01;53.00;99838.09;4359155;32;33438;-88
2023/09/07 01:18:52;;;;;;;8.00;3.75;;;;;;;19.01;52.99;99840.72;4358158;32;33995;-90
2023/09/07 01:21:20;;;;;;;6.75;4.03;;;;;;;19.20;52.29;99837.00;4358257;32;33793;-89
2023/09/07 01:23:48;;;;;;;6.37;3.47;;;;;;;19.19;52.14;99832.63;4359678;32;33847;-90
2023/09/07 01:26:16;;;;;;;7.07;3.75;;;;;;;19.10;52.28;99843.25;4358635;32;34101;-90
2023/09/07 01:28:44;;;;;;;7.87;4.07;;;;;;;19.08;52.10;99837.12;4345875;32;34144;-89
2023/09/07 01:31:12;;;;;;;8.00;4.12;;;;;;;18.92;52.83;99836.44;4360588;32;34220;-89
2023/09/07 01:33:39;;;;;;;6.35;4.00;;;;;;;18.92;52.99;99835.56;4361580;32;34596;-89
2023/09/07 01:36:07;;;;;;;7.00;4.00;;;;;;;18.86;52.87;99828.59;4361044;32;33621;-89
2023/09/07 01:38:34;;;;;;;9.82;4.40;;;;;;;18.93;52.82;99842.56;4361723;32;34097;-90
2023/09/07 01:41:02;;;;;;;7.03;3.87;;;;;;;18.97;52.86;99833.75;4361512;32;34262;-88
2023/09/07 01:43:30;;;;;;;5.95;3.85;;;;;;;18.89;53.29;99846.97;4360849;32;33887;-90
2023/09/07 01:45:57;;;;;;;8.02;4.25;;;;;;;18.90;53.09;99838.22;4370372;32;33954;-89
2023/09/07 01:48:25;;;;;;;10.23;4.60;;;;;;;19.08;52.98;99841.53;4366318;32;33641;-88
2023/09/07 01:50:53;;;;;;;6.25;4.00;;;;;;;18.98;53.25;99834.63;4360072;32;34250;-89
2023/09/07 01:53:21;;;;;;;7.80;4.10;;;;;;;19.04;52.69;99845.06;4360743;32;34164;-91
2023/09/07 01:55:49;;;;;;;7.85;4.25;;;;;;;19.27;52.53;99839.56;4361391;32;33802;-90
2023/09/07 01:58:17;;;;;;;6.65;3.65;;;;;;;19.16;52.86;99839.69;4361313;32;33700;-89
2023/09/07 02:00:44;;;;;;;6.22;3.90;;;;;;;19.20;52.51;99841.37;4361513;32;33839;-90
2023/09/07 02:03:12;;;;;;;7.75;4.10;;;;;;;19.19;52.67;99842.28;4359922;32;34204;-89
2023/09/07 02:05:40;;;;;;;7.12;4.15;;;;;;;19.18;52.28;99841.41;4361330;32;33537;-88
2023/09/07 02:08:07;;;;;;;7.25;3.58;;;;;;;19.26;52.17;99838.69;4360313;32;33718;-89
2023/09/07 02:10:35;;;;;;;6.43;3.90;;;;;;;19.30;52.13;99840.41;4361504;32;34622;-90
2023/09/07 02:13:03;;;;;;;6.75;3.92;;;;;;;19.25;52.32;99846.59;4361162;32;33755;-90
2023/09/07 02:15:31;;;;;;;8.02;4.12;;;;;;;19.21;52.13;99837.88;4361307;32;33590;-88
2023/09/07 02:17:59;;;;;;;7.35;4.28;;;;;;;19.07;52.69;99847.69;4359888;32;34814;-90
2023/09/07 02:20:27;;;;;;;6.15;4.07;;;;;;;19.10;52.42;99843.25;4361202;32;33806;-90
2023/09/07 02:22:54;;;;;;;5.90;3.65;;;;;;;19.05;52.83;99844.19;4360982;32;34159;-89
2023/09/07 02:25:22;;;;;;;6.12;3.47;;;;;;;19.12;52.90;99837.97;4360435;32;33436;-90
2023/09/07 02:27:49;;;;;;;5.85;3.83;;;;;;;19.06;52.80;99841.56;4361171;32;34793;-90
2023/09/07 02:30:17;;;;;;;7.03;4.03;;;;;;;19.04;52.90;99845.06;4361187;32;34252;-90
2023/09/07 02:32:45;;;;;;;7.15;4.20;;;;;;;19.05;52.91;99842.41;4360837;32;34721;-89
2023/09/07 02:35:12;;;;;;;7.43;4.00;;;;;;;18.98;52.92;99846.03;4360870;32;33156;-87
2023/09/07 02:37:40;;;;;;;7.12;4.68;;;;;;;18.87;53.34;99847.91;4360969;32;34323;-89
2023/09/07 02:40:08;;;;;;;7.78;4.20;;;;;;;18.87;52.87;99848.75;4359271;32;34160;-89
2023/09/07 02:42:36;;;;;;;8.18;4.03;;;;;;;18.95;52.58;99849.56;4346981;32;34260;-89
2023/09/07 02:45:38;;;;;;;7.15;4.30;;;;;;;18.97;52.37;99849.53;4360999;32;33387;-88
2023/09/07 02:48:06;;;;;;;7.25;4.05;;;;;;;18.99;52.48;99846.91;4359863;32;33849;-88
2023/09/07 02:50:35;;;;;;;6.43;4.05;;;;;;;18.94;52.29;99855.69;4360057;32;34145;-87
2023/09/07 02:53:04;;;;;;;8.48;4.22;;;;;;;18.85;52.81;99849.66;4359429;32;33989;-88
2023/09/07 02:55:32;;;;;;;7.40;4.07;;;;;;;18.86;52.83;99854.00;4361422;32;33063;-88
2023/09/07 02:58:02;;;;;;;7.30;3.85;;;;;;;18.87;52.76;99854.00;4359795;32;33515;-89
2023/09/07 03:00:30;;;;;;;7.80;3.85;;;;;;;18.89;52.75;99854.84;4359276;32;34091;-89
2023/09/07 03:02:58;;;;;;;6.78;4.05;;;;;;;18.88;53.14;99861.00;4361281;32;33794;-89
2023/09/07 03:05:28;;;;;;;7.50;3.85;;;;;;;18.92;52.98;99852.19;4361116;32;33324;-89
2023/09/07 03:07:55;;;;;;;6.87;4.07;;;;;;;18.79;52.97;99857.59;4359923;32;34658;-90
2023/09/07 03:10:23;;;;;;;8.20;3.62;;;;;;;18.77;52.68;99852.34;4360932;32;33929;-90
2023/09/07 03:12:52;;;;;;;6.95;4.10;;;;;;;18.69;52.81;99851.53;4361079;32;33650;-89
2023/09/07 03:15:20;;;;;;;5.93;4.05;;;;;;;18.72;52.99;99846.28;4359307;32;33323;-89
2023/09/07 03:17:48;;;;;;;7.80;3.95;;;;;;;18.72;53.28;99854.16;4359398;32;35301;-90
2023/09/07 03:20:16;;;;;;;7.65;4.18;;;;;;;18.69;53.49;99856.78;4361094;32;33349;-89
2023/09/07 03:22:44;;;;;;;7.03;3.95;;;;;;;18.75;53.15;99859.38;4361082;32;34747;-91
2023/09/07 03:25:13;;;;;;;7.18;3.95;;;;;;;18.66;53.36;99856.81;4361129;32;33266;-88
2023/09/07 03:27:41;;;;;;;7.22;4.22;;;;;;;18.62;53.15;99849.84;4360665;32;34775;-88
2023/09/07 03:30:09;;;;;;;6.10;4.05;;;;;;;18.58;53.07;99848.13;4360963;32;33821;-90
2023/09/07 03:32:37;;;;;;;9.82;4.20;;;;;;;18.56;53.00;99850.78;4360784;32;34234;-89
2023/09/07 03:35:08;;;;;;;7.40;4.35;;;;;;;18.54;53.26;99849.03;4359326;32;34317;-90
2023/09/07 03:37:39;;;;;;;6.87;3.75;;;;;;;18.55;53.44;99853.41;4359445;32;34912;-89
2023/09/07 03:40:08;;;;;;;6.22;3.72;;;;;;;18.56;53.30;99857.75;4360690;32;34224;-89
2023/09/07 03:42:37;;;;;;;5.93;4.07;;;;;;;18.53;53.08;99861.31;4360481;32;34555;-90
2023/09/07 03:45:05;;;;;;;7.68;3.83;;;;;;;18.57;52.95;99854.28;4360668;32;33342;-90
2023/09/07 03:47:33;;;;;;;7.07;3.45;;;;;;;18.60;52.92;99862.09;4359789;32;33840;-89
2023/09/07 03:50:01;;;;;;;8.27;4.05;;;;;;;18.61;52.89;99858.63;4360828;32;34615;-90
2023/09/07 03:52:29;;;;;;;5.87;3.70;;;;;;;18.56;52.81;99857.75;4344029;33;34535;-89
2023/09/07 03:54:57;;;;;;;8.55;4.40;;;;;;;18.53;52.59;99863.06;4344901;33;34177;-90
2023/09/07 03:57:25;;;;;;;6.82;3.62;;;;;;;18.56;52.48;99857.75;4344697;33;33983;-90
2023/09/07 03:59:56;;;;;;;7.00;3.90;;;;;;;18.61;52.33;99862.09;4368001;32;34190;-89
2023/09/07 04:02:24;;;;;;;6.32;4.05;;;;;;;18.53;52.52;99857.81;4360617;32;34732;-90
2023/09/07 04:04:55;;;;;;;8.50;4.50;;;;;;;18.44;52.87;99861.38;4360418;32;34424;-89
2023/09/07 04:07:22;;;;;;;7.65;4.32;;;;;;;18.17;53.67;99859.81;4360582;32;33980;-89
2023/09/07 04:09:50;;;;;;;6.20;3.85;;;;;;;18.31;53.45;99863.22;4358795;32;34145;-89
2023/09/07 04:12:18;;;;;;;6.40;4.05;;;;;;;18.31;53.52;99862.34;4359199;32;33985;-89
2023/09/07 04:14:46;;;;;;;6.57;4.12;;;;;;;18.32;53.52;99862.34;4358625;32;32698;-90
2023/09/07 04:17:14;;;;;;;7.07;4.43;;;;;;;18.33;53.42;99866.69;4358823;32;34646;-89
2023/09/07 04:19:43;;;;;;;6.95;3.90;;;;;;;18.31;53.34;99867.59;4360498;32;34689;-89
2023/09/07 04:22:11;;;;;;;6.60;3.83;;;;;;;18.26;53.73;99874.62;4360128;32;32975;-89
2023/09/07 04:24:38;;;;;;;6.37;4.15;;;;;;;18.20;54.12;99870.31;4358285;32;34007;-90
2023/09/07 04:27:08;;;;;;;9.52;4.18;;;;;;;18.30;54.03;99873.75;4358717;32;33633;-89
2023/09/07 04:29:36;;;;;;;7.50;4.05;;;;;;;18.28;54.05;99863.25;4346556;32;31936;-90
2023/09/07 04:32:04;;;;;;;6.80;4.07;;;;;;;18.26;54.14;99867.66;4359744;32;33620;-90
2023/09/07 04:34:32;;;;;;;6.20;3.70;;;;;;;18.30;54.04;99864.13;4359310;32;32961;-90
2023/09/07 04:36:59;;;;;;;6.32;3.42;;;;;;;18.30;54.28;99864.13;4357684;32;33037;-87
2023/09/07 04:39:27;;;;;;;8.05;4.15;;;;;;;18.36;53.70;99866.66;4356965;32;34958;-88
2023/09/07 04:41:55;;;;;;;7.20;4.35;;;;;;;18.46;54.05;99870.97;4356540;32;34152;-89
2023/09/07 04:44:22;;;;;;;6.80;3.62;;;;;;;18.67;53.48;99866.41;4344637;32;33147;-92
2023/09/07 04:46:51;;;;;;;6.37;3.87;;;;;;;18.94;52.71;99876.72;4347338;32;33162;-90
2023/09/07 04:49:20;;;;;;;6.87;3.78;;;;;;;19.37;52.25;99873.63;4360155;32;34189;-89
2023/09/07 04:51:47;;;;;;;7.68;4.03;;;;;;;19.82;51.64;99863.44;4358836;32;34723;-91
2023/09/07 04:54:16;;;;;;;8.02;3.97;;;;;;;20.21;50.75;99866.38;4358812;32;33589;-88
2023/09/07 04:56:43;;;;;;;5.85;3.62;;;;;;;20.59;49.32;99867.56;4343626;33;33857;-89
2023/09/07 04:59:11;;;;;;;5.68;3.80;;;;;;;20.77;48.83;99869.00;4344621;33;34022;-90
2023/09/07 05:01:39;;;;;;;35.95;22.00;;;;;;;21.01;49.22;99862.41;4357237;32;33712;-90
2023/09/07 05:04:06;;;;;;;32.83;15.80;;;;;;;21.32;47.77;99855.63;4356085;32;33557;-89
2023/09/07 05:06:37;;;;;;;8.57;5.10;;;;;;;21.58;47.14;99862.19;4344476;32;34282;-90
2023/09/07 05:09:05;;;;;;;8.55;5.00;;;;;;;21.81;47.30;99859.06;4360136;32;34965;-90
2023/09/07 05:11:36;;;;;;;8.18;4.70;;;;;;;22.01;46.58;99866.53;4360673;32;33555;-89
2023/09/07 05:14:03;;;;;;;7.35;4.30;;;;;;;22.22;47.17;99867.84;4344077;32;32122;-88
2023/09/07 05:16:31;;;;;;;7.90;4.07;;;;;;;22.34;46.33;99870.19;4360267;32;33979;-88
2023/09/07 05:18:59;;;;;;;7.68;4.37;;;;;;;22.25;46.86;99868.62;4361060;32;34973;-87
2023/09/07 05:21:26;;;;;;;6.37;4.25;;;;;;;22.50;46.36;99875.97;4358160;32;33610;-87
2023/09/07 05:23:54;;;;;;;6.47;3.35;;;;;;;22.79;46.00;99881.38;4360616;32;33386;-87
2023/09/07 05:26:23;;;;;;;9.30;4.30;;;;;;;22.84;45.76;99873.31;4358987;32;34807;-88
2023/09/07 05:28:52;;;;;;;7.22;4.35;;;;;;;22.81;45.21;99876.06;4360693;32;34930;-88
2023/09/07 05:31:19;;;;;;;6.37;3.60;;;;;;;23.00;44.75;99876.50;4360896;32;33877;-88
2023/09/07 05:33:47;;;;;;;7.80;4.10;;;;;;;23.09;44.10;99881.53;4361678;32;34292;-89
2023/09/07 05:36:15;;;;;;;9.02;4.07;;;;;;;23.10;44.60;99883.25;4360623;32;34758;-87
2023/09/07 05:38:42;;;;;;;6.60;3.80;;;;;;;23.20;45.06;99878.59;4358796;32;33645;-88
2023/09/07 05:41:10;;;;;;;7.72;4.18;;;;;;;23.12;45.38;99881.44;4360232;32;33823;-90
2023/09/07 05:43:38;;;;;;;8.75;3.92;;;;;;;23.11;45.95;99885.00;4359908;32;33276;-90
2023/09/07 05:46:05;;;;;;;9.60;3.50;;;;;;;23.01;44.86;99888.78;4358105;32;34743;-91
2023/09/07 05:48:33;;;;;;;10.48;4.05;;;;;;;22.97;44.99;99887.16;4359079;32;32436;-87
2023/09/07 05:51:01;;;;;;;10.35;3.97;;;;;;;23.25;43.24;99885.47;4360717;32;33922;-87
2023/09/07 05:53:29;;;;;;;8.48;4.03;;;;;;;23.12;44.30;99885.88;4346731;32;34315;-87
2023/09/07 05:55:57;;;;;;;6.68;3.70;;;;;;;22.97;44.47;99887.16;4360605;32;35130;-87
2023/09/07 05:58:24;;;;;;;8.00;4.07;;;;;;;22.37;44.31;99879.81;4361774;32;33678;-92
2023/09/07 06:00:53;;;;;;;6.50;3.50;;;;;;;22.70;44.37;99884.28;4361651;32;34149;-87
2023/09/07 06:03:21;;;;;;;7.47;3.75;;;;;;;22.65;43.62;99878.22;4344349;32;33765;-90
2023/09/07 06:05:49;;;;;;;9.73;3.85;;;;;;;22.68;42.65;99895.78;4361564;32;33799;-87
2023/09/07 06:08:18;;;;;;;6.30;3.40;;;;;;;22.56;44.19;99889.91;4360157;32;33692;-88
2023/09/07 06:10:46;;;;;;;7.62;4.03;;;;;;;22.53;43.16;99891.75;4361509;32;34255;-92
2023/09/07 06:13:14;;;;;;;7.05;3.62;;;;;;;22.13;44.52;99902.37;4359957;32;33088;-88
2023/09/07 06:15:42;;;;;;;6.90;3.53;;;;;;;21.97;44.56;99900.06;4360184;32;33854;-88
2023/09/07 06:18:10;;;;;;;7.72;3.85;;;;;;;22.08;45.24;99905.09;4361782;32;34948;-85
2023/09/07 06:20:38;;;;;;;10.00;4.25;;;;;;;22.45;43.25;99899.84;4361405;32;33743;-87
2023/09/07 06:23:06;;;;;;;8.63;4.10;;;;;;;22.19;44.50;99897.81;4361406;32;33968;-86
2023/09/07 06:25:34;;;;;;;8.23;4.40;;;;;;;22.36;44.75;99899.22;4360569;32;34132;-87
2023/09/07 06:28:02;;;;;;;10.32;4.12;;;;;;;21.90;45.73;99900.25;4361212;32;34162;-87
2023/09/07 06:30:30;;;;;;;11.60;4.10;;;;;;;22.20;44.91;99907.50;4359981;32;33159;-87
2023/09/07 06:32:57;;;;;;;7.37;4.05;;;;;;;21.92;46.00;99903.69;4359888;32;33283;-88
2023/09/07 06:35:25;;;;;;;11.93;4.93;;;;;;;22.16;45.88;99913.78;4359871;32;34519;-86
2023/09/07 06:37:53;;;;;;;7.20;4.50;;;;;;;22.08;45.65;99913.88;4361495;32;35179;-87
2023/09/07 06:40:22;;;;;;;8.93;4.37;;;;;;;22.28;45.28;99916.13;4361483;32;34771;-86
2023/09/07 06:42:49;;;;;;;7.72;4.28;;;;;;;21.84;46.15;99915.28;4361297;32;34156;-87
2023/09/07 06:45:19;;;;;;;9.80;4.60;;;;;;;22.04;46.95;99908.69;4359163;32;33122;-85
2023/09/07 06:47:49;;;;;;;7.87;4.57;;;;;;;22.24;45.43;99917.09;4360304;32;35104;-87
2023/09/07 06:50:18;;;;;;;12.25;4.10;;;;;;;22.15;45.46;99917.28;4361461;32;35258;-86
2023/09/07 06:52:45;;;;;;;10.30;4.55;;;;;;;22.01;46.81;99916.69;4360093;32;33688;-93
2023/09/07 06:55:13;;;;;;;8.63;4.40;;;;;;;22.19;47.23;99926.00;4359940;32;33982;-86
2023/09/07 06:57:41;;;;;;;8.15;4.47;;;;;;;22.13;47.50;99920.84;4359101;32;34160;-85
2023/09/07 07:00:10;;;;;;;9.02;4.70;;;;;;;22.20;46.41;99925.09;4360025;32;34571;-86
2023/09/07 07:02:38;;;;;;;10.90;5.07;;;;;;;22.20;46.88;99931.28;4359699;32;33597;-87
2023/09/07 07:05:08;;;;;;;8.90;4.65;;;;;;;22.26;46.83;99930.25;4360141;32;33645;-89
2023/09/07 07:07:36;;;;;;;11.18;5.07;;;;;;;22.21;47.85;99930.38;4359654;32;34180;-85
2023/09/07 07:10:04;;;;;;;11.43;4.87;;;;;;;21.94;47.28;99939.72;4359573;32;33505;-87
2023/09/07 07:12:34;;;;;;;10.68;4.60;;;;;;;22.32;47.97;99930.13;4360806;32;33699;-86
2023/09/07 07:15:02;;;;;;;7.68;4.45;;;;;;;22.26;47.26;99936.41;4360634;32;35037;-86
2023/09/07 07:17:31;;;;;;;10.88;5.30;;;;;;;22.29;46.87;99931.06;4359378;32;32679;-89
2023/09/07 07:19:58;;;;;;;9.18;4.90;;;;;;;22.49;46.82;99927.94;4359814;32;33586;-87
2023/09/07 07:22:26;;;;;;;10.40;4.82;;;;;;;22.44;47.15;99940.41;4347006;32;31963;-86
2023/09/07 07:24:54;;;;;;;10.65;4.80;;;;;;;22.55;46.35;99929.59;4359728;32;34345;-86
2023/09/07 07:27:22;;;;;;;9.45;4.65;;;;;;;23.00;45.43;99939.97;4359473;32;34324;-86
2023/09/07 07:29:51;;;;;;;9.70;4.80;;;;;;;23.06;45.72;99935.34;4361167;32;35122;-86
2023/09/07 07:32:19;;;;;;;10.40;5.85;;;;;;;23.46;44.55;99946.66;4360113;32;33080;-86
2023/09/07 07:34:47;;;;;;;9.10;4.45;;;;;;;23.38;44.68;99940.72;4359906;32;34101;-87
2023/09/07 07:37:15;;;;;;;11.57;4.37;;;;;;;23.37;45.49;99944.25;4360554;32;34849;-89
2023/09/07 07:39:43;;;;;;;11.02;4.68;;;;;;;23.61;44.54;99940.94;4360989;32;32983;-86
2023/09/07 07:42:11;;;;;;;10.32;5.00;;;;;;;23.74;43.65;99938.84;4361202;32;33387;-86
2023/09/07 07:44:38;;;;;;;8.60;4.90;;;;;;;24.00;44.59;99940.72;4360169;32;33626;-85
2023/09/07 07:47:06;;;;;;;12.40;4.90;;;;;;;24.28;43.96;99936.34;4361147;32;34144;-88
2023/09/07 07:49:35;;;;;;;10.18;5.53;;;;;;;24.53;42.63;99935.56;4361201;32;34050;-87
2023/09/07 07:52:03;;;;;;;9.98;5.37;;;;;;;24.86;41.49;99938.06;4358040;32;31871;-86
2023/09/07 07:54:33;;;;;;;11.50;4.55;;;;;;;24.63;42.76;99931.72;4361052;32;34580;-86
2023/09/07 07:57:01;;;;;;;10.35;5.07;;;;;;;24.86;43.08;99938.91;4359773;32;34107;-93
2023/09/07 07:59:29;;;;;;;12.25;5.00;;;;;;;24.70;42.81;99933.25;4360800;32;34221;-86
2023/09/07 08:01:57;;;;;;;9.40;5.60;;;;;;;24.24;42.97;99937.34;4347722;32;34765;-87
2023/09/07 08:04:25;;;;;;;11.18;4.85;;;;;;;24.63;44.00;99933.50;4359733;32;34014;-88
2023/09/07 08:06:57;;;;;;;9.38;5.10;;;;;;;24.88;42.45;99936.19;4359208;32;34741;-84
2023/09/07 08:09:25;;;;;;;8.57;4.87;;;;;;;24.52;42.03;99937.38;4360796;32;33486;-85
2023/09/07 08:11:52;;;;;;;8.82;5.12;;;;;;;24.97;42.33;99933.25;4360701;32;34324;-87
2023/09/07 08:14:20;;;;;;;10.00;4.37;;;;;;;25.13;42.67;99931.81;4359459;32;33530;-86
2023/09/07 08:16:48;;;;;;;13.18;4.82;;;;;;;24.93;41.55;99935.13;4359234;32;35102;-86
2023/09/07 08:19:16;;;;;;;9.35;4.70;;;;;;;24.80;42.52;99932.94;4360439;32;33100;-86
2023/09/07 08:21:44;;;;;;;9.27;4.15;;;;;;;25.09;41.91;99932.81;4360416;32;33423;-86
2023/09/07 08:24:12;;;;;;;10.70;4.95;;;;;;;24.86;41.69;99933.59;4360461;32;35049;-87
2023/09/07 08:26:40;;;;;;;9.57;4.65;;;;;;;25.23;41.72;99932.37;4359430;32;34931;-85
2023/09/07 08:29:08;;;;;;;9.45;4.65;;;;;;;24.90;41.55;99929.94;4360990;32;34200;-85
2023/09/07 08:31:38;;;;;;;10.75;4.40;;;;;;;25.11;41.83;99928.34;4358947;32;34673;-87
2023/09/07 08:34:09;;;;;;;8.93;4.35;;;;;;;25.31;41.55;99926.81;4358888;32;33940;-86
2023/09/07 08:36:37;;;;;;;10.07;4.95;;;;;;;25.30;41.26;99927.72;4360319;32;35080;-85
2023/09/07 08:39:12;;;;;;;9.05;4.82;;;;;;;25.21;40.73;99928.91;4358883;32;33361;-88
2023/09/07 08:41:44;;;;;;;8.30;4.60;;;;;;;25.58;40.36;99933.75;4361198;32;33316;-86
2023/09/07 08:44:29;;;;;;;9.52;5.00;;;;;;;25.36;41.83;99933.66;4359144;32;34707;-85
2023/09/07 08:46:57;;;;;;;9.15;4.80;;;;;;;25.34;40.84;99924.00;4359289;32;34945;-87
2023/09/07 08:49:24;;;;;;;13.23;5.15;;;;;;;25.52;41.03;99918.03;4346338;32;33104;-85
2023/09/07 08:51:53;;;;;;;11.18;5.10;;;;;;;25.72;41.78;99926.16;4359289;32;32975;-85
2023/09/07 08:54:22;;;;;;;8.73;4.47;;;;;;;25.65;39.75;99913.16;4359805;32;34469;-85
2023/09/07 08:56:50;;;;;;;9.05;4.28;;;;;;;25.62;40.07;99918.59;4358772;32;34219;-91
2023/09/07 08:59:17;;;;;;;11.75;4.37;;;;;;;25.69;40.57;99913.00;4360092;32;33710;-88
2023/09/07 09:01:45;;;;;;;8.85;4.30;;;;;;;25.79;38.90;99916.19;4360332;32;34559;-85
2023/09/07 09:04:13;;;;;;;8.48;4.10;;;;;;;25.91;39.48;99905.12;4359908;32;33641;-85
2023/09/07 09:06:41;;;;;;;8.50;4.43;;;;;;;26.07;39.16;99913.34;4356785;32;35147;-88
2023/09/07 09:09:09;;;;;;;9.50;4.82;;;;;;;25.91;39.22;99904.22;4352680;32;35060;-83
2023/09/07 09:11:38;;;;;;;8.25;4.43;;;;;;;26.27;39.34;99909.03;4358595;32;32863;-85
2023/09/07 09:14:06;;;;;;;8.77;4.45;;;;;;;25.97;39.38;99906.66;4359647;32;34621;-89
2023/09/07 09:16:34;;;;;;;11.57;4.97;;;;;;;26.14;39.29;99904.22;4360631;32;33823;-87
2023/09/07 09:19:03;;;;;;;7.65;3.90;;;;;;;26.37;38.41;99897.13;4359449;32;33978;-85
2023/09/07 09:21:31;;;;;;;7.53;4.15;;;;;;;26.57;36.74;99899.84;4359461;32;33568;-84
2023/09/07 09:24:00;;;;;;;8.35;4.20;;;;;;;26.14;38.29;99898.91;4358276;32;34110;-91
2023/09/07 09:26:27;;;;;;;10.90;4.25;;;;;;;26.32;38.87;99891.09;4359720;32;35071;-85
2023/09/07 09:28:57;;;;;;;9.38;4.47;;;;;;;26.52;36.49;99898.28;4358609;32;34134;-86
2023/09/07 09:31:25;;;;;;;6.87;3.80;;;;;;;26.32;37.77;99888.44;4359971;32;34036;-84
2023/09/07 09:33:53;;;;;;;13.23;4.85;;;;;;;26.27;36.89;99890.44;4360180;32;33970;-86
2023/09/07 09:36:20;;;;;;;11.02;4.15;;;;;;;26.57;37.75;99897.19;4358516;32;33794;-94
2023/09/07 09:38:50;;;;;;;6.85;3.65;;;;;;;26.65;37.92;99896.88;4360201;32;33853;-96
2023/09/07 09:41:18;;;;;;;8.40;3.83;;;;;;;26.71;37.41;99896.63;4348301;32;32658;-84
2023/09/07 09:43:49;;;;;;;8.02;4.47;;;;;;;26.92;35.89;99895.69;4358591;32;34500;-86
2023/09/07 09:46:17;;;;;;;8.25;4.43;;;;;;;27.01;37.86;99893.56;4359491;32;35054;-88
2023/09/07 09:48:45;;;;;;;7.87;3.65;;;;;;;26.73;35.25;99891.22;4361507;32;34489;-85
2023/09/07 09:51:14;;;;;;;7.97;4.05;;;;;;;27.16;35.83;99888.50;4361597;32;33003;-87
2023/09/07 09:53:42;;;;;;;11.23;4.12;;;;;;;27.09;36.77;99888.81;4360998;32;33794;-89
2023/09/07 09:56:10;;;;;;;6.82;4.00;;;;;;;26.83;36.08;99888.13;4358314;32;34005;-86
2023/09/07 09:58:38;;;;;;;9.50;4.22;;;;;;;26.98;35.50;99883.09;4362560;32;33932;-84
2023/09/07 10:01:07;;;;;;;9.20;4.40;;;;;;;27.00;34.99;99889.19;4360770;32;33533;-92
2023/09/07 10:03:45;;;;;;;7.78;3.90;;;;;;;27.13;35.43;99885.97;4361797;32;34451;-86
2023/09/07 10:06:24;;;;;;;8.65;4.05;;;;;;;27.07;35.42;99894.16;4348682;32;34945;-87
2023/09/07 10:09:06;;;;;;;8.20;3.85;;;;;;;27.02;36.47;99885.53;4359652;32;33793;-84
2023/09/07 10:11:38;;;;;;;6.78;4.03;;;;;;;27.42;35.56;99881.13;4360145;32;33651;-86
2023/09/07 10:14:07;;;;;;;8.77;4.00;;;;;;;27.63;35.76;99884.63;4360008;32;34280;-90
2023/09/07 10:16:45;;;;;;;6.10;3.40;;;;;;;27.40;33.87;99880.34;4361297;32;33891;-86
2023/09/07 10:19:17;;;;;;;7.78;4.00;;;;;;;27.50;35.83;99878.97;4361346;32;33917;-87
2023/09/07 10:21:45;;;;;;;7.05;4.10;;;;;;;27.59;35.04;99865.25;4361382;32;34074;-93
2023/09/07 10:24:28;;;;;;;6.97;3.90;;;;;;;27.79;36.33;99867.00;4361786;32;34637;-89
2023/09/07 10:27:04;;;;;;;6.87;3.50;;;;;;;27.64;35.10;99863.22;4361568;32;35173;-85
2023/09/07 10:29:42;;;;;;;6.78;3.72;;;;;;;27.98;32.93;99869.66;4362029;32;34735;-84
2023/09/07 10:32:14;;;;;;;6.82;4.20;;;;;;;28.31;33.67;99861.84;4362226;32;33346;-86
2023/09/07 10:34:47;;;;;;;8.52;3.50;;;;;;;28.26;34.82;99866.56;4361150;32;34927;-84
2023/09/07 10:37:15;;;;;;;6.87;3.55;;;;;;;28.28;31.98;99861.13;4354264;32;35025;-95
2023/09/07 10:39:45;;;;;;;7.50;3.95;;;;;;;28.14;32.99;99849.31;4346529;33;33657;-94
2023/09/07 10:42:23;;;;;;;5.87;3.28;;;;;;;28.19;33.04;99858.94;4346812;33;33572;-87
2023/09/07 10:44:52;;;;;;;6.85;3.85;;;;;;;27.71;32.48;99853.16;4345971;33;34509;-94
2023/09/07 10:47:20;;;;;;;7.10;3.75;;;;;;;27.63;34.75;99850.00;4344848;33;35169;-88
2023/09/07 10:49:48;;;;;;;8.57;4.03;;;;;;;27.92;35.29;99851.31;4346437;33;33953;-92
2023/09/07 10:52:15;;;;;;;10.27;3.95;;;;;;;28.01;35.12;99850.88;4346305;33;34162;-90
2023/09/07 10:54:43;;;;;;;6.68;3.70;;;;;;;28.03;32.85;99850.78;4345784;33;34862;-91
2023/09/07 10:57:17;;;;;;;9.93;3.97;;;;;;;27.93;30.49;99849.53;4344982;33;33893;-85
2023/09/07 10:59:45;;;;;;;6.63;3.90;;;;;;;27.96;32.79;99849.34;4346083;33;33972;-86
2023/09/07 11:02:15;;;;;;;7.87;3.87;;;;;;;28.30;33.43;99845.94;4344168;33;33349;-88
2023/09/07 11:04:43;;;;;;;7.28;3.90;;;;;;;28.35;33.13;99843.91;4356442;32;33982;-86
2023/09/07 11:07:12;;;;;;;7.30;3.40;;;;;;;28.38;33.05;99846.44;4361193;32;34291;-84
2023/09/07 11:09:43;;;;;;;6.28;3.87;;;;;;;28.51;32.13;99839.53;4361361;32;33699;-83
2023/09/07 11:12:15;;;;;;;7.15;3.25;;;;;;;28.54;30.31;99834.06;4361582;32;34056;-86
2023/09/07 11:14:48;;;;;;;6.22;3.78;;;;;;;28.33;31.51;99841.28;4360789;32;34008;-86
2023/09/07 11:17:15;;;;;;;8.55;3.65;;;;;;;28.65;30.80;99825.50;4349281;32;33512;-87
2023/09/07 11:19:43;;;;;;;7.68;3.78;;;;;;;28.49;31.90;99828.09;4346243;33;33550;-86
2023/09/07 11:22:11;;;;;;;7.35;3.80;;;;;;;28.51;31.96;99830.69;4345109;33;34123;-86
2023/09/07 11:24:39;;;;;;;7.25;3.70;;;;;;;28.14;33.31;99825.31;4345913;33;34740;-89
2023/09/07 11:27:09;;;;;;;7.40;3.80;;;;;;;28.54;32.45;99823.38;4346502;33;34296;-87
2023/09/07 11:29:36;;;;;;;6.35;3.70;;;;;;;28.21;32.35;99825.91;4344737;33;34707;-86
2023/09/07 11:32:11;;;;;;;5.50;3.47;;;;;;;28.23;32.63;99823.19;4345162;33;33350;-92
2023/09/07 11:34:52;;;;;;;7.55;3.70;;;;;;;28.58;30.60;99821.44;4356359;32;34977;-88
2023/09/07 11:37:25;;;;;;;9.00;4.07;;;;;;;28.59;29.83;99810.66;4372899;32;34998;-86
2023/09/07 11:39:52;;;;;;;5.80;3.35;;;;;;;28.40;30.39;99817.87;4375806;32;33582;-87